AirNav   Air Wisconsin Up To $57,000 Bonus
 
 361 users online  

MA87 Cape Air Seaplanes on Boston Harbor Seaplane Base
Boston, Massachusetts, USA

GOING TO BOSTON?


FAA INFORMATION EFFECTIVE 07 NOVEMBER 2019

Location

FAA Identifier: MA87
Lat/Long: 42-21-09.0000N 071-01-33.0000W
42-21.150000N 071-01.550000W
42.3525000,-71.0258333
(estimated)
Elevation: 0 ft. / 0 m
From city: 1 mile SE of BOSTON, MA
Time zone: UTC -5 (UTC -4 during Daylight Saving Time)
Zip code: 02127

Seaplane Base Operations

Seaplane Base use: Private use. Permission required prior to landing
Activation date: 09/2016
Control tower: no
ARTCC: BOSTON CENTER
FSS: BRIDGEPORT FLIGHT SERVICE STATION
Attendance: 
Segmented circle: no

Seaplane Base Communications

WX ASOS at BOS (1.1 nm NE): PHONE 617-567-5762
WX ASOS at OWD (12 nm SW): 119.95 (781-762-4314)
WX ASOS at BED (14 nm NW): 124.6 (781-274-9733)
WX ASOS at BVY (15 nm N): PHONE 978-921-5042

Nearby radio navigation aids

VOR radial/distance  VOR name  Freq  Var
BOSr276/1.6BOSTON VOR/DME112.7016W
LWMr188/23.5LAWRENCE VOR/DME112.5015W
MHTr169/34.5MANCHESTER VOR/DME114.4015W

 
NDB name  Hdg/Dist  Freq  Var  ID
SHAKER HILL148/9.225116WSKR ... -.- .-.
STOGE033/14.739715WOW --- .--
MARSHFIELD330/21.836816WIMR .. -- .-.
TAUNTON015/28.622716WTAN - .- -.
PROVINCETOWN312/39.538916WPVC .--. ...- -.-.

Seaplane Base Services

Runway Information

Runway 14W/32W

Dimensions: 2500 x 60 ft. / 762 x 18 m
Surface: water
RUNWAY 14W  RUNWAY 32W
Latitude: 42-21.150000N
Longitude: 071-01.550000W
Elevation: 0.0 ft.
Traffic pattern: leftleft

Seaplane Base Ownership and Management from official FAA records

Ownership: Privately-owned
Owner: HYANNIS AIR SERVICE, INC
660 BARNSTABLE RD
HYANNIS, MA 02601
Phone 508-862-9719
Manager: ANDREW BONNEY
660 BARNSTABLE RD
HYANNIS, MA 02601
Phone 508-862-9719

Additional Remarks

FOR CD CTC BOSTON ARTCC AT 603-879-6859.
IATA ID: BNH.

Instrument Procedures

There are no published instrument procedures at MA87.

Some nearby airports with instrument procedures:

KBOS - General Edward Lawrence Logan International Airport (1 nm NE)
KOWD - Norwood Memorial Airport (12 nm SW)
KBED - Laurence G Hanscom Field Airport (14 nm NW)
KBVY - Beverly Regional Airport (15 nm N)
KGHG - Marshfield Municipal Airport - George Harlow Field (22 nm SE)
 
Loc | Ops | Rwys | IFR | FBO | Links
Com | Nav | Svcs | Stats | Notes
Aerial photo
No photo
 
Airport distance calculator
Flying to Cape Air Seaplanes on Boston Harbor Seaplane Base? Find the distance to fly.

From to MA87

Sunrise and sunset
Times for 15-Nov-2019
 Local
(UTC-5)
 Zulu
(UTC)
Morning civil twilight06:0611:06
Sunrise06:3611:36
Sunset16:2221:22
Evening civil twilight16:5221:52

Current date and time
Zulu (UTC)  15-Nov-2019 07:09:55
Local (UTC-5)  15-Nov-2019 02:09:55
 
METAR
KBOS 150654Z 22007KT 10SM SCT130 03/M01 A3023 RMK AO2 SLP237 T00281011
KMQE 
9nm SW 
150651Z AUTO 24010KT 02/M02 A3020 RMK AO1 SLP243 T00171017
KOWD 
12nm SW 
150653Z AUTO 00000KT 10SM CLR M03/M06 A3024 RMK AO2 SLP240 T10331056
KBED 
14nm NW 
150651Z AUTO 00000KT 10SM BKN120 M03/M06 A3022 RMK AO2 SLP248 T10331056
KBVY 
15nm N 
150653Z AUTO 00000KT 4SM BR SCT120 M02/M03 A3022 RMK AO2 SLP230 T10171033
TAF
KBOS 150522Z 1506/1612 25007KT P6SM SCT120 FM151500 23011G18KT P6SM SKC FM152200 26011G19KT P6SM FEW200 FM160400 30013G22KT P6SM SCT050 FM160700 33016G27KT P6SM SCT250
KBED 
14nm NW 
150522Z 1506/1606 24003KT P6SM SCT120 FM151500 24010G19KT P6SM SKC FM152000 25009KT P6SM SKC FM160000 27008KT P6SM FEW150 FM160400 29009KT P6SM SCT050 FM160500 32010G20KT P6SM SCT050
NOTAMs
Click for the latest NOTAMs
NOTAMs are issued by the DoD/FAA and will open in a separate window not controlled by AirNav.

 

 
 

Would you like to see your business listed on this page?

 If your business provides an interesting product or service to pilots, flight crews, aircraft, or users of the Cape Air Seaplanes on Boston Harbor Seaplane Base, you should consider listing it here.  To start the listing process, click on the button below
 
Add a business
 

Other Pages about Cape Air Seaplanes on Boston Harbor Seaplane Base

Update a link
 
Copyright © AirNav, LLC. All rights reserved. Privacy Policy  Contact